Terminal Aerodrome Forecast
Issued by NWS Tulsa, OK

Home | Current Version | Previous Version | Text Only | Print | Product List | Glossary On
Versions: 1 2 3 4 5 6 7 8 9 10 11 12 13 14 15 16 17 18 19
000
FTUS44 KTSA 181700
TAFFSM
TAF
KFSM 181737Z 1818/1918 15006KT P6SM SCT040 BKN110
     FM190100 10003KT P6SM SCT250
     FM190800 08003KT 4SM BR SCT015
     FM191600 12005KT P6SM SCT040=

USA.gov is the U.S. government's official web portal to all federal, state and local government web resources and services.